Time;durP1;ratioP1;P1;durP2;ratioP2;P2;SDS_P1;SDS_P2;PMS_P1;PMS_P2;Temp;Humidity;BMP_temperature;BMP_pressure;BME280_temperature;BME280_humidity;BME280_pressure;Samples;Min_cycle;Max_cycle;Signal;HPM_P1;HPM_P2
2022/06/23 00:02:06;;;;;;;2.72;1.40;;;;;;;16.49;70.79;99221.13;1743502;81;21031;-66
2022/06/23 00:04:40;;;;;;;2.15;1.45;;;;;;;16.46;70.87;99231.33;1743813;82;21020;-69
2022/06/23 00:07:24;;;;;;;3.42;1.57;;;;;;;16.44;70.93;99234.36;1743932;82;21095;-68
2022/06/23 00:09:55;;;;;;;2.20;1.30;;;;;;;16.45;70.95;99237.95;1743980;82;21565;-67
2022/06/23 00:12:39;;;;;;;3.77;1.20;;;;;;;16.42;70.95;99232.41;1743972;81;20989;-67
2022/06/23 00:15:22;;;;;;;3.52;1.40;;;;;;;16.47;70.99;99246.82;1743826;81;21012;-67
2022/06/23 00:18:01;;;;;;;1.98;1.50;;;;;;;16.45;70.90;99254.55;1743841;81;21490;-67
2022/06/23 00:20:48;;;;;;;4.33;1.60;;;;;;;16.43;71.12;99252.59;1743812;82;21043;-67
2022/06/23 00:23:25;;;;;;;2.58;1.20;;;;;;;16.43;71.25;99242.92;1743734;81;21083;-68
2022/06/23 00:26:13;;;;;;;2.22;1.30;;;;;;;16.44;71.20;99245.97;1755218;81;21078;-67
2022/06/23 00:28:46;;;;;;;1.87;1.32;;;;;;;16.43;71.18;99249.83;1757418;82;20976;-67
2022/06/23 00:31:30;;;;;;;2.90;1.50;;;;;;;16.45;71.18;99249.84;1757211;82;21031;-66
2022/06/23 00:34:01;;;;;;;3.72;1.55;;;;;;;16.46;71.18;99239.63;1756929;82;21094;-68
2022/06/23 00:36:41;;;;;;;3.72;1.60;;;;;;;16.44;71.60;99252.33;1757201;80;21074;-66
2022/06/23 00:39:30;;;;;;;1.77;1.47;;;;;;;16.42;71.84;99235.17;1757184;82;21055;-67
2022/06/23 00:42:00;;;;;;;3.62;1.55;;;;;;;16.43;71.93;99241.53;1757007;81;21086;-68
2022/06/23 00:44:53;;;;;;;5.28;1.60;;;;;;;16.45;72.12;99253.16;1757275;82;21055;-68
2022/06/23 00:47:51;;;;;;;1.80;1.40;;;;;;;16.46;72.39;99247.37;1757009;81;21043;-69
2022/06/23 00:50:49;;;;;;;2.20;1.60;;;;;;;16.45;72.96;99251.78;1757216;82;21067;-68
2022/06/23 00:53:32;;;;;;;3.40;1.50;;;;;;;16.40;73.56;99247.59;1757560;81;21027;-69
2022/06/23 00:56:22;;;;;;;3.35;1.52;;;;;;;16.36;73.99;99238.99;1757106;82;21004;-72
2022/06/23 00:58:59;;;;;;;3.50;1.40;;;;;;;16.34;74.52;99249.48;1757046;82;21035;-73
2022/06/23 01:02:00;;;;;;;3.92;1.70;;;;;;;16.33;74.88;99233.99;1757152;80;21094;-74
2022/06/23 01:04:53;;;;;;;1.85;1.40;;;;;;;16.32;75.29;99236.47;1757207;81;21073;-73
2022/06/23 01:07:54;;;;;;;5.90;2.00;;;;;;;16.28;75.57;99245.55;1756948;82;21035;-75
2022/06/23 01:10:48;;;;;;;4.70;1.80;;;;;;;16.28;76.35;99249.70;1757364;82;21082;-72
2022/06/23 01:13:33;;;;;;;3.40;1.77;;;;;;;16.29;76.84;99258.28;1757341;82;21023;-77
2022/06/23 01:16:23;;;;;;;4.83;1.92;;;;;;;16.23;77.52;99251.00;1756956;82;21484;-74
2022/06/23 01:18:59;;;;;;;3.05;1.80;;;;;;;16.16;78.41;99247.91;1757166;82;21514;-73
2022/06/23 01:21:33;;;;;;;2.55;1.77;;;;;;;16.08;79.34;99249.77;1759706;82;21003;-77
2022/06/23 01:24:16;;;;;;;3.05;1.90;;;;;;;15.95;80.35;99242.45;1757133;82;21067;-75
2022/06/23 01:27:23;;;;;;;1.92;1.70;;;;;;;15.89;81.28;99240.19;1757388;82;20984;-72
2022/06/23 01:30:00;;;;;;;2.98;1.50;;;;;;;15.85;81.99;99245.95;1757532;82;21043;-71
2022/06/23 01:32:39;;;;;;;;;;;;;;;15.79;82.80;99237.32;1743692;82;21079;-71
2022/06/23 01:35:14;;;;;;;2.80;2.00;;;;;;;15.72;83.46;99244.98;1757380;82;20199;-79
2022/06/23 01:38:00;;;;;;;3.62;1.67;;;;;;;15.62;84.23;99239.34;1757279;82;21019;-77
2022/06/23 01:40:43;;;;;;;3.08;1.70;;;;;;;15.56;84.86;99238.39;1757299;82;21063;-74
2022/06/23 01:43:26;;;;;;;3.08;1.65;;;;;;;15.51;85.56;99235.02;1757300;82;21043;-76
2022/06/23 01:46:03;;;;;;;2.75;1.67;;;;;;;15.49;86.26;99241.34;1748715;82;21059;-79
2022/06/23 01:49:04;;;;;;;3.05;1.85;;;;;;;15.46;86.92;99240.48;1757489;82;21031;-74
2022/06/23 01:51:47;;;;;;;3.17;2.00;;;;;;;15.44;87.69;99247.36;1725040;82;21039;-72
2022/06/23 01:54:25;;;;;;;2.17;1.70;;;;;;;15.40;88.19;99244.27;1757125;82;21412;-75
2022/06/23 01:57:11;;;;;;;2.72;1.70;;;;;;;15.40;88.79;99251.17;1757125;81;21071;-74
2022/06/23 01:59:58;;;;;;;3.75;2.00;;;;;;;15.42;89.05;99241.25;1757105;82;21023;-72
2022/06/23 02:02:32;;;;;;;4.62;2.40;;;;;;;15.43;89.38;99255.34;1757136;82;21035;-69
2022/06/23 02:05:31;;;;;;;4.05;2.52;;;;;;;15.41;89.66;99252.84;1757322;82;21435;-69
2022/06/23 02:08:37;;;;;;;3.50;2.40;;;;;;;15.40;89.95;99253.10;1757062;81;21063;-70
2022/06/23 02:11:41;;;;;;;4.72;2.83;;;;;;;15.42;90.39;99253.13;1757167;82;21066;-68
2022/06/23 02:14:42;;;;;;;6.28;2.90;;;;;;;15.39;90.54;99255.57;1740026;82;21027;-70
2022/06/23 02:17:31;;;;;;;6.40;3.15;;;;;;;15.41;90.75;99257.53;1757256;82;21049;-67
2022/06/23 02:20:14;;;;;;;6.62;2.83;;;;;;;15.41;90.92;99256.98;1757305;82;21079;-68
2022/06/23 02:22:45;;;;;;;4.47;2.95;;;;;;;15.42;90.83;99258.66;1757481;82;21007;-66
2022/06/23 02:25:25;;;;;;;10.13;3.10;;;;;;;15.41;90.62;99264.44;1757114;80;21023;-68
2022/06/23 02:28:15;;;;;;;6.85;3.12;;;;;;;15.43;90.71;99266.39;1756660;81;20988;-69
2022/06/23 02:30:54;;;;;;;5.22;3.30;;;;;;;15.44;90.56;99272.20;1756974;81;21020;-68
2022/06/23 02:33:37;;;;;;;3.92;2.60;;;;;;;15.45;90.50;99264.20;1757244;82;21011;-70
2022/06/23 02:36:30;;;;;;;4.90;3.08;;;;;;;15.45;89.81;99270.56;1756856;82;20992;-69
2022/06/23 02:39:03;;;;;;;7.47;3.40;;;;;;;15.42;89.77;99261.41;1757114;81;21529;-68
2022/06/23 02:41:39;;;;;;;6.90;2.90;;;;;;;15.44;89.88;99268.89;1757165;82;21447;-68
2022/06/23 02:44:22;;;;;;;9.08;3.02;;;;;;;15.50;90.01;99268.41;1757156;82;21458;-68
2022/06/23 02:47:21;;;;;;;6.25;3.05;;;;;;;15.52;89.97;99267.06;1757516;82;21067;-67
2022/06/23 02:50:14;;;;;;;5.22;3.08;;;;;;;15.54;89.88;99269.56;1757244;82;21078;-68
2022/06/23 02:53:21;;;;;;;5.90;3.12;;;;;;;15.52;89.61;99271.20;1757073;82;20987;-68
2022/06/23 02:56:04;;;;;;;5.75;2.90;;;;;;;15.51;89.53;99279.73;1755395;81;21016;-68
2022/06/23 02:58:53;;;;;;;4.97;3.00;;;;;;;15.50;89.38;99278.91;1757427;82;21055;-67
2022/06/23 03:01:30;;;;;;;4.37;2.70;;;;;;;15.53;89.16;99278.94;1757102;81;21028;-67
2022/06/23 03:04:03;;;;;;;3.62;2.55;;;;;;;15.54;89.23;99275.92;1757169;80;21488;-67
2022/06/23 03:06:50;;;;;;;3.77;2.87;;;;;;;15.58;89.11;99282.34;1757110;82;21459;-68
2022/06/23 03:09:24;;;;;;;4.72;2.55;;;;;;;15.57;89.08;99276.50;1757249;81;21082;-68
2022/06/23 03:12:02;;;;;;;4.55;2.70;;;;;;;15.58;89.08;99286.48;1757388;81;21078;-67
2022/06/23 03:14:52;;;;;;;5.70;2.72;;;;;;;15.59;88.88;99281.24;1757084;81;21502;-67
2022/06/23 03:17:41;;;;;;;5.00;2.47;;;;;;;15.61;88.83;99284.06;1757350;82;21058;-67
2022/06/23 03:20:37;;;;;;;5.00;2.62;;;;;;;15.67;88.81;99283.58;1740207;82;21452;-69
2022/06/23 03:23:33;;;;;;;4.85;3.15;;;;;;;15.69;88.68;99272.56;1756908;81;21095;-68
2022/06/23 03:26:29;;;;;;;6.20;3.08;;;;;;;15.72;88.48;99279.50;1756853;81;21044;-68
2022/06/23 03:29:36;;;;;;;4.12;2.62;;;;;;;15.75;88.48;99281.73;1757264;82;21432;-67
2022/06/23 03:32:13;;;;;;;5.30;2.72;;;;;;;15.75;88.10;99287.27;1757085;82;21043;-67
2022/06/23 03:34:48;;;;;;;4.78;2.80;;;;;;;15.80;88.13;99287.33;1755745;81;21047;-69
2022/06/23 03:37:44;;;;;;;7.25;2.65;;;;;;;15.83;87.81;99287.64;1757312;82;21067;-68
2022/06/23 03:43:18;;;;;;;3.25;2.40;;;;;;;15.87;87.41;99293.48;1757361;80;21428;-69
2022/06/23 03:46:12;;;;;;;4.17;2.60;;;;;;;15.88;86.96;99296.53;1755860;81;21032;-70
2022/06/23 03:48:51;;;;;;;3.70;2.60;;;;;;;15.89;86.89;99299.58;1757047;81;20995;-68
2022/06/23 03:51:28;;;;;;;7.10;2.62;;;;;;;15.90;86.76;99301.80;1757163;82;21047;-67
2022/06/23 03:54:14;;;;;;;3.80;3.00;;;;;;;15.93;86.72;99306.80;1757152;82;21464;-66
2022/06/23 03:56:56;;;;;;;3.77;3.00;;;;;;;15.93;86.82;99305.42;1757221;82;21467;-67
2022/06/23 03:59:52;;;;;;;5.95;2.65;;;;;;;15.94;86.71;99301.56;1757148;82;21531;-68
2022/06/23 04:02:25;;;;;;;7.12;3.25;;;;;;;15.97;86.74;99306.02;1723115;81;21488;-70
2022/06/23 04:05:03;;;;;;;6.97;2.70;;;;;;;16.02;86.82;99315.75;1756974;82;21003;-68
2022/06/23 04:07:55;;;;;;;6.05;2.90;;;;;;;16.07;86.91;99314.96;1756934;81;21019;-68
2022/06/23 04:10:41;;;;;;;4.80;3.00;;;;;;;16.10;86.74;99324.95;1756985;81;21459;-67
2022/06/23 04:13:28;;;;;;;3.47;2.75;;;;;;;16.13;86.77;99323.05;1757004;82;21062;-68
2022/06/23 04:16:04;;;;;;;4.40;3.00;;;;;;;16.17;86.52;99322.81;1756937;82;21019;-68
2022/06/23 04:18:36;;;;;;;;;;;;;;;16.25;86.47;99322.05;1759848;82;21004;-67
2022/06/23 04:21:12;;;;;;;6.47;3.20;;;;;;;16.31;86.35;99322.42;1740837;82;20207;-68
2022/06/23 04:23:49;;;;;;;7.55;3.05;;;;;;;16.35;86.23;99327.17;1757284;81;21016;-67
2022/06/23 04:26:31;;;;;;;5.25;3.00;;;;;;;16.43;86.07;99328.63;1757054;81;21027;-67
2022/06/23 04:29:29;;;;;;;6.30;3.00;;;;;;;16.48;85.66;99332.81;1757127;82;21000;-69
2022/06/23 04:32:13;;;;;;;2.52;2.33;;;;;;;16.55;85.42;99335.37;1757028;81;21032;-66
2022/06/23 04:34:55;;;;;;;5.75;2.58;;;;;;;16.59;84.80;99338.72;1756964;81;21071;-68
2022/06/23 04:37:42;;;;;;;3.77;3.00;;;;;;;16.62;84.30;99341.52;1757037;82;21470;-67
2022/06/23 04:40:26;;;;;;;6.80;2.90;;;;;;;16.62;84.03;99336.81;1757292;82;21003;-66
2022/06/23 04:43:06;;;;;;;3.02;2.60;;;;;;;16.67;84.02;99333.30;1757321;82;21019;-67
2022/06/23 04:46:07;;;;;;;8.35;5.90;;;;;;;16.71;83.56;99339.41;1757136;82;20984;-68
2022/06/23 04:49:09;;;;;;;3.83;2.90;;;;;;;16.76;83.33;99331.16;1757201;82;21003;-67
2022/06/23 04:51:42;;;;;;;8.60;2.85;;;;;;;16.78;82.21;99341.95;1757220;82;21027;-67
2022/06/23 04:54:17;;;;;;;3.83;2.65;;;;;;;16.83;80.48;99345.31;1757247;80;21043;-67
2022/06/23 04:56:54;;;;;;;3.22;2.67;;;;;;;16.88;80.29;99346.73;1757044;80;21082;-68
2022/06/23 04:59:54;;;;;;;4.17;2.67;;;;;;;16.92;79.91;99346.52;1757286;82;21424;-67
2022/06/23 05:02:42;;;;;;;9.55;2.80;;;;;;;16.96;79.67;99345.73;1757050;82;21046;-67
2022/06/23 05:05:18;;;;;;;5.78;2.42;;;;;;;17.00;79.63;99348.25;1756919;82;21007;-67
2022/06/23 05:07:56;;;;;;;3.42;2.90;;;;;;;17.06;78.93;99351.34;1756965;80;21534;-67
2022/06/23 05:10:32;;;;;;;;;;;;;;;17.08;78.79;99349.14;1759866;82;21078;-67
2022/06/23 05:13:14;;;;;;;5.10;2.72;;;;;;;17.13;78.56;99344.19;1757266;82;20203;-68
2022/06/23 05:16:05;;;;;;;3.83;2.80;;;;;;;17.16;78.58;99349.74;1757264;82;21086;-69
2022/06/23 05:18:45;;;;;;;5.15;2.80;;;;;;;17.23;78.26;99361.42;1757409;82;21019;-67
2022/06/23 05:21:18;;;;;;;3.98;2.70;;;;;;;17.27;77.45;99355.08;1757262;82;21455;-67
2022/06/23 05:23:53;;;;;;;3.25;2.65;;;;;;;17.32;77.64;99361.20;1755488;81;21031;-68
2022/06/23 05:26:27;;;;;;;8.20;2.60;;;;;;;17.35;76.76;99357.34;1757110;82;21051;-67
2022/06/23 05:29:19;;;;;;;4.15;2.25;;;;;;;17.39;76.61;99361.80;1757188;80;21023;-67
2022/06/23 05:31:51;;;;;;;4.12;2.62;;;;;;;17.47;76.65;99360.45;1757252;81;21028;-67
2022/06/23 05:34:31;;;;;;;5.85;3.08;;;;;;;17.53;76.37;99360.22;1757053;80;21074;-67
2022/06/23 05:37:15;;;;;;;5.47;2.62;;;;;;;17.59;76.07;99367.48;1757187;81;21043;-67
2022/06/23 05:39:48;;;;;;;4.70;2.50;;;;;;;17.66;76.04;99363.95;1754991;81;21043;-67
2022/06/23 05:42:22;;;;;;;7.20;3.20;;;;;;;17.79;75.88;99355.70;1757289;81;21023;-66
2022/06/23 05:45:01;;;;;;;4.45;2.90;;;;;;;18.01;75.55;99359.11;1757246;80;21043;-66
2022/06/23 05:47:32;;;;;;;9.40;2.95;;;;;;;18.34;75.04;99372.27;1757488;82;21020;-66
2022/06/23 05:50:05;;;;;;;6.40;3.47;;;;;;;18.66;73.10;99362.36;1756967;81;21023;-66
2022/06/23 05:52:49;;;;;;;4.90;3.42;;;;;;;18.87;71.86;99366.01;1757121;82;21479;-67
2022/06/23 05:55:41;;;;;;;6.87;3.30;;;;;;;19.04;70.81;99372.11;1757033;82;21040;-67
2022/06/23 05:58:57;;;;;;;4.85;3.45;;;;;;;19.26;70.53;99376.81;1756968;82;21051;-66
2022/06/23 06:01:42;;;;;;;6.12;3.77;;;;;;;19.45;68.48;99373.45;1757033;80;21015;-67
2022/06/23 06:04:20;;;;;;;5.33;3.70;;;;;;;19.56;68.19;99378.77;1757232;80;21062;-68
2022/06/23 06:06:49;;;;;;;6.78;3.60;;;;;;;19.65;66.37;99377.63;1757293;82;21023;-67
2022/06/23 06:09:35;;;;;;;4.92;3.30;;;;;;;19.64;66.60;99378.74;1757271;82;21031;-67
2022/06/23 06:12:23;;;;;;;7.47;3.65;;;;;;;19.57;65.80;99383.20;1757499;82;21470;-67
2022/06/23 06:15:00;;;;;;;5.95;3.42;;;;;;;19.51;66.44;99381.52;1757043;82;21105;-68
2022/06/23 06:17:32;;;;;;;5.78;3.08;;;;;;;19.44;66.75;99387.06;1757135;81;21087;-65
2022/06/23 06:20:09;;;;;;;5.92;2.92;;;;;;;19.38;66.69;99379.30;1757029;82;21423;-66
2022/06/23 06:23:04;;;;;;;4.75;3.15;;;;;;;19.36;66.94;99386.24;1757051;82;21099;-69
2022/06/23 06:25:38;;;;;;;5.12;2.80;;;;;;;19.43;66.88;99368.73;1757249;81;20999;-68
2022/06/23 06:28:18;;;;;;;3.72;2.83;;;;;;;19.52;66.84;99366.55;1745616;82;21927;-68
2022/06/23 06:31:01;;;;;;;4.97;3.10;;;;;;;19.62;66.31;99362.91;1743701;82;21056;-67
2022/06/23 06:34:02;;;;;;;7.10;3.00;;;;;;;19.67;66.34;99367.06;1743955;82;21480;-65
2022/06/23 06:36:44;;;;;;;10.58;3.95;;;;;;;19.74;66.09;99368.98;1743607;81;21011;-67
2022/06/23 06:39:25;;;;;;;8.50;3.00;;;;;;;19.77;65.87;99381.48;1743888;82;21008;-66
2022/06/23 06:42:08;;;;;;;5.15;2.98;;;;;;;19.77;66.02;99392.60;1743800;82;21039;-69
2022/06/23 06:44:46;;;;;;;8.35;3.10;;;;;;;19.77;66.06;99393.43;1744005;82;21032;-67
2022/06/23 06:47:19;;;;;;;7.67;3.10;;;;;;;19.77;65.85;99398.99;1743820;81;21012;-67
2022/06/23 06:49:48;;;;;;;4.45;2.80;;;;;;;19.76;65.92;99397.88;1743197;81;21000;-69
2022/06/23 06:52:19;;;;;;;6.70;3.00;;;;;;;19.74;65.89;99400.95;1743814;82;21067;-68
2022/06/23 06:54:58;;;;;;;5.25;2.77;;;;;;;19.75;65.83;99416.51;1743967;82;21060;-69
2022/06/23 06:57:36;;;;;;;4.78;4.03;;;;;;;19.72;65.41;99410.69;1743716;82;21452;-67
2022/06/23 07:00:09;;;;;;;4.78;3.08;;;;;;;19.69;65.21;99414.86;1743765;81;20980;-67
2022/06/23 07:02:47;;;;;;;9.35;3.10;;;;;;;19.66;65.26;99420.98;1743995;82;21071;-68
2022/06/23 07:05:34;;;;;;;3.95;2.37;;;;;;;19.59;65.27;99429.61;1743624;81;21083;-68
2022/06/23 07:08:22;;;;;;;4.45;2.75;;;;;;;19.54;65.51;99432.95;1743999;82;21518;-67
2022/06/23 07:11:23;;;;;;;5.78;2.90;;;;;;;19.48;65.90;99432.62;1744127;82;21036;-65
2022/06/23 07:14:22;;;;;;;6.37;3.00;;;;;;;19.41;66.17;99446.80;1743884;81;21530;-68
2022/06/23 07:17:00;;;;;;;5.47;2.83;;;;;;;19.35;66.62;99442.91;1743821;81;21024;-69
2022/06/23 07:19:41;;;;;;;5.37;3.20;;;;;;;19.29;66.56;99456.80;1740300;82;21000;-68
2022/06/23 07:22:32;;;;;;;4.80;2.60;;;;;;;19.25;66.76;99447.36;1743782;82;21052;-69
2022/06/23 07:25:19;;;;;;;6.50;2.85;;;;;;;19.26;67.07;99443.47;1743766;81;21476;-69
2022/06/23 07:28:13;;;;;;;5.97;2.87;;;;;;;19.32;66.88;99445.69;1751771;81;21055;-68
2022/06/23 07:30:46;;;;;;;4.85;2.77;;;;;;;19.37;66.53;99450.41;1716422;81;21020;-67
2022/06/23 07:33:21;;;;;;;5.95;2.77;;;;;;;19.41;66.09;99457.07;1757079;82;21000;-69
2022/06/23 07:35:55;;;;;;;4.20;2.60;;;;;;;19.47;65.51;99457.34;1757116;82;21482;-67
2022/06/23 07:38:48;;;;;;;4.20;2.92;;;;;;;19.57;65.57;99460.17;1756472;81;21063;-67
2022/06/23 07:41:41;;;;;;;6.53;3.20;;;;;;;19.70;64.69;99469.88;1766483;79;21015;-68
2022/06/23 07:44:17;;;;;;;6.47;3.12;;;;;;;19.80;64.21;99473.48;1780630;79;22079;-68
2022/06/23 07:46:47;;;;;;;6.00;2.85;;;;;;;19.91;64.30;99475.13;1766655;80;21043;-68
2022/06/23 07:49:17;;;;;;;5.62;3.05;;;;;;;19.98;63.78;99472.05;1760824;80;21085;-68
2022/06/23 07:51:46;;;;;;;6.58;3.12;;;;;;;20.00;63.61;99471.20;1756905;80;20994;-67
2022/06/23 07:54:19;;;;;;;4.92;2.75;;;;;;;19.99;63.44;99475.11;1756989;82;21047;-69
2022/06/23 07:56:49;;;;;;;5.25;3.02;;;;;;;19.98;63.24;99463.70;1756901;82;21067;-66
2022/06/23 07:59:22;;;;;;;3.42;2.75;;;;;;;19.96;62.84;99477.05;1783228;80;21455;-68
2022/06/23 08:02:05;;;;;;;4.95;2.75;;;;;;;19.94;62.96;99478.73;1720252;83;21050;-66
2022/06/23 08:05:03;;;;;;;6.33;3.08;;;;;;;19.93;63.11;99499.30;1731919;83;21067;-65
2022/06/23 08:07:33;;;;;;;6.97;2.87;;;;;;;19.91;63.53;99500.70;1721013;83;21015;-65
2022/06/23 08:10:11;;;;;;;7.70;3.55;;;;;;;19.87;63.94;99507.38;1731863;83;21032;-65
2022/06/23 08:12:56;;;;;;;8.80;3.10;;;;;;;19.84;64.40;99507.95;1720862;83;21074;-66
2022/06/23 08:18:54;;;;;;;6.95;3.30;;;;;;;19.83;65.09;99516.01;1702924;82;21429;-64
2022/06/23 08:21:46;;;;;;;4.85;3.05;;;;;;;19.84;64.88;99511.28;1692261;85;21059;-63
2022/06/23 08:24:18;;;;;;;5.58;3.17;;;;;;;19.79;65.12;99514.90;1691947;85;21031;-61
2022/06/23 08:26:51;;;;;;;5.55;3.15;;;;;;;19.79;65.36;99512.13;1691917;85;21046;-63
2022/06/23 08:29:23;;;;;;;4.47;2.47;;;;;;;19.81;65.69;99518.79;1660062;85;21332;-66
2022/06/23 08:31:51;;;;;;;10.53;3.12;;;;;;;19.88;65.87;99519.34;1660414;85;21030;-63
2022/06/23 08:34:23;;;;;;;6.47;3.00;;;;;;;20.01;65.64;99520.14;1660366;85;21114;-63
2022/06/23 08:36:56;;;;;;;7.47;3.00;;;;;;;20.19;64.95;99516.80;1751527;80;21024;-62
2022/06/23 08:39:54;;;;;;;6.47;3.00;;;;;;;20.32;64.31;99515.36;1751362;82;21059;-63
2022/06/23 08:42:48;;;;;;;5.92;2.90;;;;;;;20.39;64.01;99532.62;1751848;82;21067;-63
2022/06/23 08:45:48;;;;;;;5.92;3.10;;;;;;;20.40;63.21;99518.15;1797946;79;21074;-63
2022/06/23 08:48:33;;;;;;;5.37;2.70;;;;;;;20.40;63.42;99537.63;1795022;79;21066;-63
2022/06/23 08:51:19;;;;;;;7.72;3.10;;;;;;;20.40;63.54;99523.72;1774886;80;21039;-63
2022/06/23 08:54:17;;;;;;;4.78;2.70;;;;;;;20.52;63.42;99536.19;1751426;82;21452;-64
2022/06/23 08:56:54;;;;;;;6.60;2.55;;;;;;;20.74;63.08;99537.77;1751584;82;21012;-63
2022/06/23 08:59:32;;;;;;;4.17;2.77;;;;;;;20.97;62.54;99552.44;1751424;81;21032;-68
2022/06/23 09:02:33;;;;;;;3.47;2.72;;;;;;;21.12;61.01;99541.20;1751668;82;21490;-63
2022/06/23 09:05:27;;;;;;;4.67;2.90;;;;;;;21.17;60.52;99543.95;1702271;81;21041;-64
2022/06/23 09:08:29;;;;;;;4.55;2.87;;;;;;;21.20;60.62;99553.13;1751402;82;20979;-63
2022/06/23 09:11:09;;;;;;;4.55;2.92;;;;;;;21.20;60.65;99553.13;1748500;82;21023;-63
2022/06/23 09:14:06;;;;;;;9.93;3.90;;;;;;;21.19;60.10;99550.07;1751413;82;21014;-63
2022/06/23 09:17:23;;;;;;;7.57;2.80;;;;;;;21.24;60.23;99567.34;1751077;81;20984;-66
2022/06/23 09:20:03;;;;;;;6.33;2.90;;;;;;;21.37;60.15;99578.41;1751342;82;21059;-63
2022/06/23 09:23:01;;;;;;;6.30;2.85;;;;;;;21.53;58.51;99578.61;1766859;80;21048;-64
2022/06/23 09:26:07;;;;;;;4.78;3.00;;;;;;;21.62;57.45;99582.44;1782425;79;21554;-63
2022/06/23 09:28:53;;;;;;;4.28;2.52;;;;;;;21.63;57.35;99578.53;1704943;84;21075;-64
2022/06/23 09:32:00;;;;;;;5.78;2.75;;;;;;;21.62;57.35;99575.47;1777570;80;21067;-64
2022/06/23 09:34:40;;;;;;;6.90;2.87;;;;;;;21.67;56.82;99580.17;1782454;80;21020;-62
2022/06/23 09:37:41;;;;;;;3.83;2.58;;;;;;;21.72;56.18;99573.99;1782165;80;21490;-66
2022/06/23 09:40:15;;;;;;;6.45;2.98;;;;;;;21.75;56.10;99580.94;1782254;79;21056;-63
2022/06/23 09:43:08;;;;;;;7.50;2.90;;;;;;;21.76;55.97;99575.64;1782392;80;21031;-64
2022/06/23 09:46:02;;;;;;;6.33;2.87;;;;;;;21.72;55.29;99571.20;1782680;79;21039;-66
2022/06/23 09:48:53;;;;;;;8.00;2.75;;;;;;;21.64;55.63;99577.41;1782330;80;20996;-67
2022/06/23 09:52:03;;;;;;;4.62;2.92;;;;;;;21.57;55.65;99590.84;1732146;80;21083;-64
2022/06/23 09:54:46;;;;;;;4.95;2.50;;;;;;;21.47;55.73;99588.13;1764368;80;21043;-65
2022/06/23 09:57:36;;;;;;;5.10;2.65;;;;;;;21.36;56.04;99597.64;1815040;79;21478;-66
2022/06/23 10:00:21;;;;;;;3.92;2.55;;;;;;;21.32;56.22;99604.92;1742504;82;21015;-63
2022/06/23 10:03:13;;;;;;;8.90;2.50;;;;;;;21.29;56.24;99602.70;1782625;79;21478;-66
2022/06/23 10:05:58;;;;;;;5.22;2.22;;;;;;;21.25;55.56;99598.83;1755504;79;21067;-67
2022/06/23 10:08:58;;;;;;;5.65;2.40;;;;;;;21.20;55.06;99608.02;1782456;80;21472;-65
2022/06/23 10:11:51;;;;;;;6.08;2.70;;;;;;;21.15;55.37;99615.84;1782597;80;21052;-64
2022/06/23 10:14:34;;;;;;;4.45;2.50;;;;;;;21.13;55.13;99612.52;1782564;80;21205;-65
2022/06/23 10:17:19;;;;;;;5.62;2.30;;;;;;;21.11;54.70;99614.75;1780777;80;21008;-64
2022/06/23 10:20:11;;;;;;;3.90;2.20;;;;;;;21.13;54.82;99610.28;1782385;80;21059;-66
2022/06/23 10:22:48;;;;;;;4.35;2.40;;;;;;;21.23;54.54;99616.39;1782498;80;21067;-65
2022/06/23 10:25:50;;;;;;;4.83;2.12;;;;;;;21.33;54.15;99612.16;1782298;80;21083;-64
2022/06/23 10:28:48;;;;;;;3.67;1.95;;;;;;;21.43;53.75;99618.50;1784869;80;21465;-66
2022/06/23 10:31:56;;;;;;;2.17;1.85;;;;;;;21.54;53.63;99615.12;1787893;80;21082;-66
2022/06/23 10:34:51;;;;;;;4.75;2.33;;;;;;;21.60;52.79;99632.64;1787836;79;21467;-66
2022/06/23 10:37:45;;;;;;;4.42;2.00;;;;;;;21.59;53.26;99623.45;1788143;79;21301;-68
2022/06/23 10:40:25;;;;;;;5.87;2.12;;;;;;;21.60;52.82;99630.69;1787844;80;21055;-66
2022/06/23 10:43:22;;;;;;;3.87;2.10;;;;;;;21.56;52.67;99636.57;1786100;80;21035;-65
2022/06/23 10:46:09;;;;;;;3.77;2.20;;;;;;;21.54;52.85;99647.17;1788063;80;21007;-65
2022/06/23 10:48:59;;;;;;;5.10;2.20;;;;;;;21.52;52.49;99638.27;1788297;80;21448;-67
2022/06/23 10:52:12;;;;;;;4.83;2.17;;;;;;;21.42;52.75;99660.59;1788032;80;21027;-65
2022/06/23 10:54:52;;;;;;;8.03;2.22;;;;;;;21.33;53.28;99647.83;1776629;80;21015;-62
2022/06/23 10:57:42;;;;;;;3.70;2.42;;;;;;;21.28;54.03;99650.64;1787952;79;21522;-61
2022/06/23 11:00:25;;;;;;;4.22;2.45;;;;;;;21.25;53.91;99654.56;1785950;79;21074;-67
2022/06/23 11:03:17;;;;;;;8.38;2.20;;;;;;;21.23;54.03;99655.41;1773451;81;21512;-67
2022/06/23 11:06:14;;;;;;;4.00;2.15;;;;;;;21.17;53.94;99655.39;1777001;81;21063;-67
2022/06/23 11:09:17;;;;;;;5.03;2.40;;;;;;;21.12;54.06;99656.81;1777762;81;21439;-68
2022/06/23 11:12:01;;;;;;;3.75;2.20;;;;;;;21.09;53.80;99667.69;1777714;79;21459;-68
2022/06/23 11:14:49;;;;;;;5.33;2.20;;;;;;;21.04;53.81;99672.72;1777837;81;21612;-68
2022/06/23 11:17:40;;;;;;;5.05;2.20;;;;;;;21.01;53.97;99687.78;1777768;81;21120;-66
2022/06/23 11:20:21;;;;;;;3.52;2.45;;;;;;;20.95;54.06;99688.36;1777468;81;21520;-68
2022/06/23 11:23:07;;;;;;;4.95;2.58;;;;;;;20.91;54.56;99708.70;1777767;81;21466;-69
2022/06/23 11:25:59;;;;;;;6.15;2.77;;;;;;;20.89;54.73;99699.23;1777882;79;21054;-69
2022/06/23 11:28:53;;;;;;;4.35;2.30;;;;;;;20.87;55.41;99708.43;1741506;80;21102;-68
2022/06/23 11:32:00;;;;;;;3.35;2.33;;;;;;;20.83;55.53;99705.94;1777477;81;21078;-69
2022/06/23 11:34:53;;;;;;;2.30;2.05;;;;;;;20.79;55.79;99712.59;1751940;81;21118;-70
2022/06/23 11:37:47;;;;;;;4.83;2.37;;;;;;;20.81;56.21;99716.52;1777776;80;21082;-69
2022/06/23 11:41:03;;;;;;;3.77;2.50;;;;;;;20.82;55.95;99702.88;1777580;81;21407;-68
2022/06/23 11:43:43;;;;;;;3.72;2.37;;;;;;;20.81;56.00;99706.77;1777697;81;21031;-70
2022/06/23 11:46:38;;;;;;;6.75;2.80;;;;;;;20.82;55.15;99711.23;1774308;80;21082;-70
2022/06/23 11:49:41;;;;;;;5.37;2.37;;;;;;;20.86;55.29;99706.77;1757370;80;21023;-66
2022/06/23 11:52:30;;;;;;;6.05;2.52;;;;;;;20.92;54.83;99707.58;1775588;80;21058;-68
2022/06/23 11:55:29;;;;;;;3.50;2.15;;;;;;;20.98;54.70;99715.64;1755769;80;21059;-69
2022/06/23 11:58:13;;;;;;;5.72;2.30;;;;;;;21.04;54.44;99717.30;1787820;79;21011;-68
2022/06/23 12:01:10;;;;;;;6.17;2.33;;;;;;;21.10;54.19;99718.95;1775052;79;21055;-65
2022/06/23 12:03:53;;;;;;;6.80;3.42;;;;;;;21.15;53.99;99721.71;1699607;82;21101;-72
2022/06/23 12:06:51;;;;;;;6.22;2.30;;;;;;;21.21;53.82;99723.36;1702710;84;21061;-71
2022/06/23 12:09:28;;;;;;;4.12;2.27;;;;;;;21.26;53.45;99724.49;1674140;84;21079;-69
2022/06/23 12:11:57;;;;;;;5.75;2.25;;;;;;;21.29;53.14;99733.11;1702822;84;21037;-69
2022/06/23 12:14:28;;;;;;;4.47;2.27;;;;;;;21.31;52.74;99734.22;1702771;84;21072;-70
2022/06/23 12:17:19;;;;;;;3.27;2.17;;;;;;;21.32;52.75;99746.48;1702818;84;21028;-67
2022/06/23 12:20:09;;;;;;;4.42;2.25;;;;;;;21.33;52.35;99743.97;1709224;83;21020;-69
2022/06/23 12:22:54;;;;;;;6.40;2.58;;;;;;;21.34;52.16;99740.63;1719712;83;21080;-68
2022/06/23 12:25:38;;;;;;;3.00;2.00;;;;;;;21.38;51.87;99740.33;1719762;83;21083;-69
2022/06/23 12:28:26;;;;;;;5.20;2.12;;;;;;;21.44;51.73;99737.80;1731439;81;21031;-69
2022/06/23 12:31:10;;;;;;;7.72;2.12;;;;;;;21.53;51.59;99750.05;1779536;80;21408;-67
2022/06/23 12:34:00;;;;;;;3.27;1.98;;;;;;;21.61;50.73;99738.30;1779655;80;21559;-70
2022/06/23 12:36:57;;;;;;;6.45;2.40;;;;;;;21.64;50.62;99753.62;1779594;80;21047;-69
2022/06/23 12:39:56;;;;;;;5.95;2.10;;;;;;;21.64;50.46;99743.86;1779430;80;21089;-70
2022/06/23 12:42:41;;;;;;;5.75;2.40;;;;;;;21.66;50.55;99743.02;1779986;80;21022;-68
2022/06/23 12:45:35;;;;;;;3.90;2.30;;;;;;;21.67;50.71;99746.91;1779548;80;20999;-71
2022/06/23 12:48:24;;;;;;;4.10;2.22;;;;;;;21.71;50.44;99746.61;1779529;79;21447;-68
2022/06/23 12:51:37;;;;;;;7.53;2.40;;;;;;;21.77;50.64;99745.45;1794781;79;21472;-69
2022/06/23 12:54:34;;;;;;;6.58;2.20;;;;;;;21.86;50.70;99763.81;1760781;80;21094;-71
2022/06/23 12:57:12;;;;;;;3.17;2.00;;;;;;;21.92;49.92;99751.50;1740781;81;21471;-71
2022/06/23 12:59:55;;;;;;;4.87;2.37;;;;;;;21.97;50.09;99757.05;1740255;81;21038;-68
2022/06/23 13:02:43;;;;;;;5.15;2.25;;;;;;;22.04;50.04;99752.02;1740384;82;21091;-69
2022/06/23 13:05:31;;;;;;;16.80;2.85;;;;;;;22.09;49.93;99753.94;1740760;82;20995;-69
2022/06/23 13:08:12;;;;;;;4.17;2.15;;;;;;;22.14;50.00;99751.14;1740397;82;21478;-69